sensor_id;sensor_type;location;lat;lon;timestamp;temperature;humidity
19090;DHT22;9677;50.656;13.064;2022-10-04T00:01:49;15.00;61.50
19090;DHT22;9677;50.656;13.064;2022-10-04T00:04:25;15.00;61.40
19090;DHT22;9677;50.656;13.064;2022-10-04T00:07:00;15.00;61.50
19090;DHT22;9677;50.656;13.064;2022-10-04T00:09:40;15.00;61.40
19090;DHT22;9677;50.656;13.064;2022-10-04T00:12:18;15.00;61.50
19090;DHT22;9677;50.656;13.064;2022-10-04T00:14:49;15.00;61.50
19090;DHT22;9677;50.656;13.064;2022-10-04T00:17:21;15.00;61.50
19090;DHT22;9677;50.656;13.064;2022-10-04T00:19:54;15.00;61.40
19090;DHT22;9677;50.656;13.064;2022-10-04T00:22:25;15.00;61.50
19090;DHT22;9677;50.656;13.064;2022-10-04T00:25:20;15.00;61.60
19090;DHT22;9677;50.656;13.064;2022-10-04T00:28:27;15.10;61.80
19090;DHT22;9677;50.656;13.064;2022-10-04T00:31:13;15.00;61.70
19090;DHT22;9677;50.656;13.064;2022-10-04T00:33:49;15.00;61.60
19090;DHT22;9677;50.656;13.064;2022-10-04T00:36:38;15.00;61.60
19090;DHT22;9677;50.656;13.064;2022-10-04T00:39:15;15.00;61.70
19090;DHT22;9677;50.656;13.064;2022-10-04T00:42:02;15.00;61.60
19090;DHT22;9677;50.656;13.064;2022-10-04T00:44:55;15.00;61.60
19090;DHT22;9677;50.656;13.064;2022-10-04T00:47:28;15.10;61.60
19090;DHT22;9677;50.656;13.064;2022-10-04T00:50:09;15.10;61.60
19090;DHT22;9677;50.656;13.064;2022-10-04T00:52:44;15.10;61.60
19090;DHT22;9677;50.656;13.064;2022-10-04T00:55:22;15.10;61.50
19090;DHT22;9677;50.656;13.064;2022-10-04T00:57:56;15.10;61.60
19090;DHT22;9677;50.656;13.064;2022-10-04T01:00:29;15.10;61.50
19090;DHT22;9677;50.656;13.064;2022-10-04T01:03:01;15.10;61.50
19090;DHT22;9677;50.656;13.064;2022-10-04T01:05:34;15.10;61.50
19090;DHT22;9677;50.656;13.064;2022-10-04T01:08:07;15.20;61.50
19090;DHT22;9677;50.656;13.064;2022-10-04T01:10:43;15.10;61.40
19090;DHT22;9677;50.656;13.064;2022-10-04T01:13:18;15.20;61.50
19090;DHT22;9677;50.656;13.064;2022-10-04T01:15:51;15.20;61.50
19090;DHT22;9677;50.656;13.064;2022-10-04T01:18:30;15.20;61.50
19090;DHT22;9677;50.656;13.064;2022-10-04T01:21:03;15.20;61.50
19090;DHT22;9677;50.656;13.064;2022-10-04T01:23:40;15.20;61.40
19090;DHT22;9677;50.656;13.064;2022-10-04T01:26:35;15.20;61.40
19090;DHT22;9677;50.656;13.064;2022-10-04T01:29:09;15.20;61.60
19090;DHT22;9677;50.656;13.064;2022-10-04T01:31:41;15.20;61.40
19090;DHT22;9677;50.656;13.064;2022-10-04T01:34:14;15.20;61.30
19090;DHT22;9677;50.656;13.064;2022-10-04T01:36:45;15.20;61.40
19090;DHT22;9677;50.656;13.064;2022-10-04T01:39:18;15.20;61.30
19090;DHT22;9677;50.656;13.064;2022-10-04T01:41:50;15.20;61.30
19090;DHT22;9677;50.656;13.064;2022-10-04T01:44:29;15.20;61.30
19090;DHT22;9677;50.656;13.064;2022-10-04T01:47:03;15.20;61.30
19090;DHT22;9677;50.656;13.064;2022-10-04T01:49:35;15.20;61.30
19090;DHT22;9677;50.656;13.064;2022-10-04T01:52:09;15.30;61.30
19090;DHT22;9677;50.656;13.064;2022-10-04T01:54:47;15.20;61.20
19090;DHT22;9677;50.656;13.064;2022-10-04T01:57:19;15.30;61.30
19090;DHT22;9677;50.656;13.064;2022-10-04T01:59:55;15.30;61.30
19090;DHT22;9677;50.656;13.064;2022-10-04T02:02:32;15.20;61.10
19090;DHT22;9677;50.656;13.064;2022-10-04T02:05:07;15.20;61.20
19090;DHT22;9677;50.656;13.064;2022-10-04T02:07:40;15.20;61.20
19090;DHT22;9677;50.656;13.064;2022-10-04T02:10:16;15.20;61.20
19090;DHT22;9677;50.656;13.064;2022-10-04T02:12:48;15.20;61.30
19090;DHT22;9677;50.656;13.064;2022-10-04T02:15:20;15.20;61.30
19090;DHT22;9677;50.656;13.064;2022-10-04T02:17:51;15.20;61.40
19090;DHT22;9677;50.656;13.064;2022-10-04T02:20:23;15.20;61.40
19090;DHT22;9677;50.656;13.064;2022-10-04T02:22:56;15.10;61.30
19090;DHT22;9677;50.656;13.064;2022-10-04T02:25:30;15.10;61.40
19090;DHT22;9677;50.656;13.064;2022-10-04T02:28:01;15.10;61.40
19090;DHT22;9677;50.656;13.064;2022-10-04T02:30:34;15.20;61.50
19090;DHT22;9677;50.656;13.064;2022-10-04T02:33:04;15.10;61.50
19090;DHT22;9677;50.656;13.064;2022-10-04T02:35:34;15.10;61.40
19090;DHT22;9677;50.656;13.064;2022-10-04T02:38:09;15.10;61.50
19090;DHT22;9677;50.656;13.064;2022-10-04T02:40:46;15.10;61.60
19090;DHT22;9677;50.656;13.064;2022-10-04T02:43:21;15.10;61.60
19090;DHT22;9677;50.656;13.064;2022-10-04T02:45:56;15.10;61.60
19090;DHT22;9677;50.656;13.064;2022-10-04T02:48:33;15.10;61.60
19090;DHT22;9677;50.656;13.064;2022-10-04T02:51:16;15.10;61.60
19090;DHT22;9677;50.656;13.064;2022-10-04T02:53:55;15.10;61.70
19090;DHT22;9677;50.656;13.064;2022-10-04T02:56:31;15.10;61.60
19090;DHT22;9677;50.656;13.064;2022-10-04T02:59:02;15.10;61.60
19090;DHT22;9677;50.656;13.064;2022-10-04T03:01:47;15.10;61.50
19090;DHT22;9677;50.656;13.064;2022-10-04T03:04:20;15.10;61.70
19090;DHT22;9677;50.656;13.064;2022-10-04T03:06:51;15.10;61.50
19090;DHT22;9677;50.656;13.064;2022-10-04T03:09:21;15.10;61.50
19090;DHT22;9677;50.656;13.064;2022-10-04T03:11:57;15.10;61.50
19090;DHT22;9677;50.656;13.064;2022-10-04T03:14:27;15.10;61.40
19090;DHT22;9677;50.656;13.064;2022-10-04T03:16:58;15.10;61.40
19090;DHT22;9677;50.656;13.064;2022-10-04T03:19:31;15.20;61.60
19090;DHT22;9677;50.656;13.064;2022-10-04T03:22:03;15.10;61.50
19090;DHT22;9677;50.656;13.064;2022-10-04T03:24:37;15.10;61.50
19090;DHT22;9677;50.656;13.064;2022-10-04T03:27:21;15.10;61.50
19090;DHT22;9677;50.656;13.064;2022-10-04T03:29:52;15.10;61.50
19090;DHT22;9677;50.656;13.064;2022-10-04T03:32:26;15.10;61.40
19090;DHT22;9677;50.656;13.064;2022-10-04T03:34:59;15.10;62.20
19090;DHT22;9677;50.656;13.064;2022-10-04T03:37:32;15.10;61.40
19090;DHT22;9677;50.656;13.064;2022-10-04T03:40:04;15.10;61.40
19090;DHT22;9677;50.656;13.064;2022-10-04T03:42:38;15.10;62.20
19090;DHT22;9677;50.656;13.064;2022-10-04T03:45:12;15.10;61.50
19090;DHT22;9677;50.656;13.064;2022-10-04T03:47:44;15.20;61.60
19090;DHT22;9677;50.656;13.064;2022-10-04T03:50:17;15.10;61.50
19090;DHT22;9677;50.656;13.064;2022-10-04T03:53:11;15.10;61.40
19090;DHT22;9677;50.656;13.064;2022-10-04T03:55:44;15.10;61.50
19090;DHT22;9677;50.656;13.064;2022-10-04T03:58:15;15.10;61.40
19090;DHT22;9677;50.656;13.064;2022-10-04T04:00:55;15.10;61.50
19090;DHT22;9677;50.656;13.064;2022-10-04T04:03:36;15.10;61.60
19090;DHT22;9677;50.656;13.064;2022-10-04T04:06:15;15.10;61.50
19090;DHT22;9677;50.656;13.064;2022-10-04T04:08:48;15.10;61.40
19090;DHT22;9677;50.656;13.064;2022-10-04T04:11:22;15.10;61.40
19090;DHT22;9677;50.656;13.064;2022-10-04T04:13:59;15.10;61.40
19090;DHT22;9677;50.656;13.064;2022-10-04T04:16:30;15.10;61.50
19090;DHT22;9677;50.656;13.064;2022-10-04T04:19:02;15.10;61.40
19090;DHT22;9677;50.656;13.064;2022-10-04T04:21:33;15.10;61.50
19090;DHT22;9677;50.656;13.064;2022-10-04T04:24:03;15.10;61.50
19090;DHT22;9677;50.656;13.064;2022-10-04T04:26:38;15.10;61.50
19090;DHT22;9677;50.656;13.064;2022-10-04T04:29:16;15.10;61.50
19090;DHT22;9677;50.656;13.064;2022-10-04T04:31:51;15.10;61.50
19090;DHT22;9677;50.656;13.064;2022-10-04T04:34:25;15.10;61.50
19090;DHT22;9677;50.656;13.064;2022-10-04T04:37:00;15.10;61.40
19090;DHT22;9677;50.656;13.064;2022-10-04T04:39:31;15.10;61.40
19090;DHT22;9677;50.656;13.064;2022-10-04T04:42:12;15.10;61.40
19090;DHT22;9677;50.656;13.064;2022-10-04T04:44:49;15.10;61.50
19090;DHT22;9677;50.656;13.064;2022-10-04T04:47:26;15.00;61.40
19090;DHT22;9677;50.656;13.064;2022-10-04T04:50:05;15.10;61.40
19090;DHT22;9677;50.656;13.064;2022-10-04T04:52:35;15.00;61.40
19090;DHT22;9677;50.656;13.064;2022-10-04T04:55:13;15.00;61.30
19090;DHT22;9677;50.656;13.064;2022-10-04T04:57:44;15.00;61.40
19090;DHT22;9677;50.656;13.064;2022-10-04T05:00:18;15.00;61.40
19090;DHT22;9677;50.656;13.064;2022-10-04T05:02:53;15.00;61.40
19090;DHT22;9677;50.656;13.064;2022-10-04T05:05:26;15.00;61.40
19090;DHT22;9677;50.656;13.064;2022-10-04T05:08:12;15.00;61.40
19090;DHT22;9677;50.656;13.064;2022-10-04T05:10:45;15.00;61.50
19090;DHT22;9677;50.656;13.064;2022-10-04T05:13:15;15.00;61.40
19090;DHT22;9677;50.656;13.064;2022-10-04T05:15:50;15.00;61.40
19090;DHT22;9677;50.656;13.064;2022-10-04T05:18:26;14.90;61.40
19090;DHT22;9677;50.656;13.064;2022-10-04T05:21:02;14.90;61.40
19090;DHT22;9677;50.656;13.064;2022-10-04T05:23:33;14.90;61.40
19090;DHT22;9677;50.656;13.064;2022-10-04T05:26:03;14.90;61.40
19090;DHT22;9677;50.656;13.064;2022-10-04T05:28:37;14.90;61.40
19090;DHT22;9677;50.656;13.064;2022-10-04T05:31:27;14.90;61.40
19090;DHT22;9677;50.656;13.064;2022-10-04T05:34:00;14.80;61.50
19090;DHT22;9677;50.656;13.064;2022-10-04T05:36:44;14.80;61.30
19090;DHT22;9677;50.656;13.064;2022-10-04T05:39:23;14.80;61.40
19090;DHT22;9677;50.656;13.064;2022-10-04T05:41:59;14.80;61.40
19090;DHT22;9677;50.656;13.064;2022-10-04T05:44:30;14.80;61.40
19090;DHT22;9677;50.656;13.064;2022-10-04T05:47:07;14.80;61.40
19090;DHT22;9677;50.656;13.064;2022-10-04T05:49:43;14.70;61.40
19090;DHT22;9677;50.656;13.064;2022-10-04T05:52:23;14.70;61.50
19090;DHT22;9677;50.656;13.064;2022-10-04T05:55:20;14.70;61.50
19090;DHT22;9677;50.656;13.064;2022-10-04T05:58:18;14.60;61.50
19090;DHT22;9677;50.656;13.064;2022-10-04T06:01:19;14.60;61.50
19090;DHT22;9677;50.656;13.064;2022-10-04T06:04:09;14.60;61.50
19090;DHT22;9677;50.656;13.064;2022-10-04T06:06:55;14.60;61.50
19090;DHT22;9677;50.656;13.064;2022-10-04T06:09:47;14.60;61.40
19090;DHT22;9677;50.656;13.064;2022-10-04T06:12:32;14.60;61.60
19090;DHT22;9677;50.656;13.064;2022-10-04T06:15:24;14.60;61.60
19090;DHT22;9677;50.656;13.064;2022-10-04T06:18:38;14.60;61.70
19090;DHT22;9677;50.656;13.064;2022-10-04T06:21:21;14.60;61.70
19090;DHT22;9677;50.656;13.064;2022-10-04T06:23:59;14.60;61.80
19090;DHT22;9677;50.656;13.064;2022-10-04T06:26:34;14.50;61.80
19090;DHT22;9677;50.656;13.064;2022-10-04T06:29:09;14.50;61.90
19090;DHT22;9677;50.656;13.064;2022-10-04T06:38:23;14.50;62.10
19090;DHT22;9677;50.656;13.064;2022-10-04T06:44:16;14.50;62.10
19090;DHT22;9677;50.656;13.064;2022-10-04T06:46:55;14.50;62.30
19090;DHT22;9677;50.656;13.064;2022-10-04T06:49:38;14.60;62.30
19090;DHT22;9677;50.656;13.064;2022-10-04T06:52:33;14.60;62.40
19090;DHT22;9677;50.656;13.064;2022-10-04T06:58:43;14.60;62.60
19090;DHT22;9677;50.656;13.064;2022-10-04T07:01:26;14.60;62.60
19090;DHT22;9677;50.656;13.064;2022-10-04T07:04:02;14.70;62.60
19090;DHT22;9677;50.656;13.064;2022-10-04T07:06:42;14.70;62.60
19090;DHT22;9677;50.656;13.064;2022-10-04T07:09:19;14.70;62.70
19090;DHT22;9677;50.656;13.064;2022-10-04T07:11:56;14.80;62.80
19090;DHT22;9677;50.656;13.064;2022-10-04T07:14:30;14.80;62.80
19090;DHT22;9677;50.656;13.064;2022-10-04T07:17:03;14.80;62.80
19090;DHT22;9677;50.656;13.064;2022-10-04T07:19:38;14.80;62.80
19090;DHT22;9677;50.656;13.064;2022-10-04T07:22:15;14.90;62.90
19090;DHT22;9677;50.656;13.064;2022-10-04T07:24:56;14.90;62.90
19090;DHT22;9677;50.656;13.064;2022-10-04T07:27:35;14.90;62.90
19090;DHT22;9677;50.656;13.064;2022-10-04T07:30:15;15.00;62.90
19090;DHT22;9677;50.656;13.064;2022-10-04T07:32:45;15.00;62.90
19090;DHT22;9677;50.656;13.064;2022-10-04T07:35:27;15.10;62.90
19090;DHT22;9677;50.656;13.064;2022-10-04T07:38:08;15.10;63.00
19090;DHT22;9677;50.656;13.064;2022-10-04T07:40:56;15.20;63.00
19090;DHT22;9677;50.656;13.064;2022-10-04T07:43:32;15.20;63.00
19090;DHT22;9677;50.656;13.064;2022-10-04T07:46:09;15.30;63.00
19090;DHT22;9677;50.656;13.064;2022-10-04T07:48:41;15.30;63.70
19090;DHT22;9677;50.656;13.064;2022-10-04T07:51:18;15.40;63.00
19090;DHT22;9677;50.656;13.064;2022-10-04T07:53:54;15.40;63.00
19090;DHT22;9677;50.656;13.064;2022-10-04T07:56:30;15.50;63.00
19090;DHT22;9677;50.656;13.064;2022-10-04T07:59:17;15.50;62.80
19090;DHT22;9677;50.656;13.064;2022-10-04T08:01:59;15.50;62.70
19090;DHT22;9677;50.656;13.064;2022-10-04T08:04:40;15.60;62.70
19090;DHT22;9677;50.656;13.064;2022-10-04T08:07:16;15.70;62.70
19090;DHT22;9677;50.656;13.064;2022-10-04T08:09:58;15.70;62.60
19090;DHT22;9677;50.656;13.064;2022-10-04T08:12:42;15.80;62.60
19090;DHT22;9677;50.656;13.064;2022-10-04T08:15:37;15.80;62.60
19090;DHT22;9677;50.656;13.064;2022-10-04T08:18:16;15.90;62.60
19090;DHT22;9677;50.656;13.064;2022-10-04T08:20:56;15.90;62.50
19090;DHT22;9677;50.656;13.064;2022-10-04T08:23:40;15.90;62.40
19090;DHT22;9677;50.656;13.064;2022-10-04T08:29:36;16.00;62.50
19090;DHT22;9677;50.656;13.064;2022-10-04T08:32:22;16.10;62.50
19090;DHT22;9677;50.656;13.064;2022-10-04T08:35:14;16.20;62.50
19090;DHT22;9677;50.656;13.064;2022-10-04T08:38:11;16.20;62.30
19090;DHT22;9677;50.656;13.064;2022-10-04T08:41:17;16.30;62.10
19090;DHT22;9677;50.656;13.064;2022-10-04T08:48:09;16.40;61.70
19090;DHT22;9677;50.656;13.064;2022-10-04T08:55:06;16.50;61.80
19090;DHT22;9677;50.656;13.064;2022-10-04T08:58:00;16.50;61.60
19090;DHT22;9677;50.656;13.064;2022-10-04T09:00:54;16.50;61.50
19090;DHT22;9677;50.656;13.064;2022-10-04T09:06:58;16.70;61.70
19090;DHT22;9677;50.656;13.064;2022-10-04T09:09:48;16.70;61.60
19090;DHT22;9677;50.656;13.064;2022-10-04T09:12:53;16.70;61.60
19090;DHT22;9677;50.656;13.064;2022-10-04T09:15:42;16.80;61.70
19090;DHT22;9677;50.656;13.064;2022-10-04T09:18:34;16.90;61.60
19090;DHT22;9677;50.656;13.064;2022-10-04T09:21:24;17.00;61.50
19090;DHT22;9677;50.656;13.064;2022-10-04T09:24:25;17.10;61.50
19090;DHT22;9677;50.656;13.064;2022-10-04T09:27:13;17.10;61.30
19090;DHT22;9677;50.656;13.064;2022-10-04T09:30:14;17.20;61.30
19090;DHT22;9677;50.656;13.064;2022-10-04T09:33:07;17.20;61.30
19090;DHT22;9677;50.656;13.064;2022-10-04T09:36:10;17.30;61.10
19090;DHT22;9677;50.656;13.064;2022-10-04T09:42:49;17.50;60.50
19090;DHT22;9677;50.656;13.064;2022-10-04T09:45:41;17.60;60.40
19090;DHT22;9677;50.656;13.064;2022-10-04T09:48:31;17.70;60.40
19090;DHT22;9677;50.656;13.064;2022-10-04T09:51:23;17.70;60.40
19090;DHT22;9677;50.656;13.064;2022-10-04T09:57:22;17.80;60.00
19090;DHT22;9677;50.656;13.064;2022-10-04T10:00:17;17.90;60.00
19090;DHT22;9677;50.656;13.064;2022-10-04T10:06:17;18.00;59.60
19090;DHT22;9677;50.656;13.064;2022-10-04T10:09:16;18.10;59.60
19090;DHT22;9677;50.656;13.064;2022-10-04T10:12:23;18.10;59.50
19090;DHT22;9677;50.656;13.064;2022-10-04T10:15:32;18.20;59.40
19090;DHT22;9677;50.656;13.064;2022-10-04T10:18:14;18.20;59.50
19090;DHT22;9677;50.656;13.064;2022-10-04T10:21:00;18.30;59.50
19090;DHT22;9677;50.656;13.064;2022-10-04T10:24:19;18.40;59.20
19090;DHT22;9677;50.656;13.064;2022-10-04T10:27:25;18.40;58.90
19090;DHT22;9677;50.656;13.064;2022-10-04T10:30:27;18.50;58.80
19090;DHT22;9677;50.656;13.064;2022-10-04T10:33:24;18.60;59.10
19090;DHT22;9677;50.656;13.064;2022-10-04T10:36:23;18.70;59.00
19090;DHT22;9677;50.656;13.064;2022-10-04T10:39:21;18.70;59.00
19090;DHT22;9677;50.656;13.064;2022-10-04T10:42:23;18.90;59.20
19090;DHT22;9677;50.656;13.064;2022-10-04T10:45:21;19.00;59.10
19090;DHT22;9677;50.656;13.064;2022-10-04T10:48:14;19.10;58.80
19090;DHT22;9677;50.656;13.064;2022-10-04T10:51:00;19.30;58.90
19090;DHT22;9677;50.656;13.064;2022-10-04T10:57:28;19.50;57.90
19090;DHT22;9677;50.656;13.064;2022-10-04T11:00:33;19.60;57.60
19090;DHT22;9677;50.656;13.064;2022-10-04T11:03:33;19.60;57.00
19090;DHT22;9677;50.656;13.064;2022-10-04T11:06:36;19.70;57.00
19090;DHT22;9677;50.656;13.064;2022-10-04T11:09:45;19.70;56.90
19090;DHT22;9677;50.656;13.064;2022-10-04T11:16:18;19.90;56.40
19090;DHT22;9677;50.656;13.064;2022-10-04T11:19:41;20.00;56.60
19090;DHT22;9677;50.656;13.064;2022-10-04T11:22:57;20.00;56.70
19090;DHT22;9677;50.656;13.064;2022-10-04T11:26:18;20.20;56.40
19090;DHT22;9677;50.656;13.064;2022-10-04T11:29:14;20.20;56.10
19090;DHT22;9677;50.656;13.064;2022-10-04T11:35:43;20.50;56.60
19090;DHT22;9677;50.656;13.064;2022-10-04T11:38:43;20.60;56.50
19090;DHT22;9677;50.656;13.064;2022-10-04T11:41:28;20.70;56.60
19090;DHT22;9677;50.656;13.064;2022-10-04T11:44:24;20.80;56.50
19090;DHT22;9677;50.656;13.064;2022-10-04T11:47:27;21.00;55.80
19090;DHT22;9677;50.656;13.064;2022-10-04T11:50:22;21.10;55.20
19090;DHT22;9677;50.656;13.064;2022-10-04T11:53:16;21.20;55.10
19090;DHT22;9677;50.656;13.064;2022-10-04T11:56:19;21.30;55.00
19090;DHT22;9677;50.656;13.064;2022-10-04T11:59:09;21.40;54.50
19090;DHT22;9677;50.656;13.064;2022-10-04T12:02:33;21.50;54.10
19090;DHT22;9677;50.656;13.064;2022-10-04T12:05:51;21.50;53.20
19090;DHT22;9677;50.656;13.064;2022-10-04T12:08:43;21.50;53.60
19090;DHT22;9677;50.656;13.064;2022-10-04T12:11:50;21.50;54.00
19090;DHT22;9677;50.656;13.064;2022-10-04T12:15:10;21.60;53.60
19090;DHT22;9677;50.656;13.064;2022-10-04T12:21:43;21.70;53.50
19090;DHT22;9677;50.656;13.064;2022-10-04T12:25:06;21.70;53.40
19090;DHT22;9677;50.656;13.064;2022-10-04T12:28:14;21.80;52.80
19090;DHT22;9677;50.656;13.064;2022-10-04T12:31:14;21.80;53.00
19090;DHT22;9677;50.656;13.064;2022-10-04T12:33:53;21.80;53.00
19090;DHT22;9677;50.656;13.064;2022-10-04T12:36:48;21.80;53.40
19090;DHT22;9677;50.656;13.064;2022-10-04T12:39:43;21.80;53.20
19090;DHT22;9677;50.656;13.064;2022-10-04T12:42:28;21.80;53.10
19090;DHT22;9677;50.656;13.064;2022-10-04T12:45:41;21.80;52.60
19090;DHT22;9677;50.656;13.064;2022-10-04T12:48:40;21.80;52.20
19090;DHT22;9677;50.656;13.064;2022-10-04T12:51:30;21.70;52.50
19090;DHT22;9677;50.656;13.064;2022-10-04T12:54:24;21.70;52.80
19090;DHT22;9677;50.656;13.064;2022-10-04T12:57:09;21.70;52.90
19090;DHT22;9677;50.656;13.064;2022-10-04T12:59:49;21.60;52.80
19090;DHT22;9677;50.656;13.064;2022-10-04T13:03:06;21.60;52.80
19090;DHT22;9677;50.656;13.064;2022-10-04T13:05:54;21.60;52.50
19090;DHT22;9677;50.656;13.064;2022-10-04T13:08:42;21.60;53.00
19090;DHT22;9677;50.656;13.064;2022-10-04T13:11:28;21.50;52.60
19090;DHT22;9677;50.656;13.064;2022-10-04T13:17:24;21.50;52.50
19090;DHT22;9677;50.656;13.064;2022-10-04T13:20:27;21.50;52.70
19090;DHT22;9677;50.656;13.064;2022-10-04T13:23:10;21.50;52.30
19090;DHT22;9677;50.656;13.064;2022-10-04T13:28:59;21.50;52.30
19090;DHT22;9677;50.656;13.064;2022-10-04T13:31:36;21.50;52.90
19090;DHT22;9677;50.656;13.064;2022-10-04T13:34:17;21.50;52.80
19090;DHT22;9677;50.656;13.064;2022-10-04T13:37:03;21.50;52.70
19090;DHT22;9677;50.656;13.064;2022-10-04T13:39:56;21.50;52.70
19090;DHT22;9677;50.656;13.064;2022-10-04T13:42:57;21.50;52.50
19090;DHT22;9677;50.656;13.064;2022-10-04T13:45:54;21.60;52.20
19090;DHT22;9677;50.656;13.064;2022-10-04T13:48:35;21.60;52.20
19090;DHT22;9677;50.656;13.064;2022-10-04T13:54:45;21.60;52.00
19090;DHT22;9677;50.656;13.064;2022-10-04T13:57:39;21.60;52.30
19090;DHT22;9677;50.656;13.064;2022-10-04T14:00:13;21.60;52.50
19090;DHT22;9677;50.656;13.064;2022-10-04T14:06:26;21.50;52.10
19090;DHT22;9677;50.656;13.064;2022-10-04T14:09:35;21.50;52.00
19090;DHT22;9677;50.656;13.064;2022-10-04T14:16:17;21.50;52.10
19090;DHT22;9677;50.656;13.064;2022-10-04T14:19:29;21.50;52.10
19090;DHT22;9677;50.656;13.064;2022-10-04T14:32:34;21.50;51.90
19090;DHT22;9677;50.656;13.064;2022-10-04T14:35:22;21.50;52.10
19090;DHT22;9677;50.656;13.064;2022-10-04T14:38:37;21.40;52.40
19090;DHT22;9677;50.656;13.064;2022-10-04T14:41:34;21.50;51.70
19090;DHT22;9677;50.656;13.064;2022-10-04T14:54:01;21.40;51.90
19090;DHT22;9677;50.656;13.064;2022-10-04T14:56:50;21.40;52.30
19090;DHT22;9677;50.656;13.064;2022-10-04T14:59:53;21.40;52.00
19090;DHT22;9677;50.656;13.064;2022-10-04T15:06:14;21.40;51.60
19090;DHT22;9677;50.656;13.064;2022-10-04T15:09:14;21.40;51.60
19090;DHT22;9677;50.656;13.064;2022-10-04T15:12:41;21.40;51.70
19090;DHT22;9677;50.656;13.064;2022-10-04T15:15:56;21.40;51.60
19090;DHT22;9677;50.656;13.064;2022-10-04T15:18:35;21.40;51.80
19090;DHT22;9677;50.656;13.064;2022-10-04T15:21:37;21.30;52.10
19090;DHT22;9677;50.656;13.064;2022-10-04T15:24:22;21.30;51.60
19090;DHT22;9677;50.656;13.064;2022-10-04T15:27:37;21.40;51.90
19090;DHT22;9677;50.656;13.064;2022-10-04T15:30:26;21.30;51.80
19090;DHT22;9677;50.656;13.064;2022-10-04T15:33:26;21.30;52.10
19090;DHT22;9677;50.656;13.064;2022-10-04T15:36:26;21.30;51.90
19090;DHT22;9677;50.656;13.064;2022-10-04T15:39:20;21.30;51.80
19090;DHT22;9677;50.656;13.064;2022-10-04T15:42:02;21.30;52.10
19090;DHT22;9677;50.656;13.064;2022-10-04T15:47:54;21.20;52.00
19090;DHT22;9677;50.656;13.064;2022-10-04T15:50:34;21.20;52.00
19090;DHT22;9677;50.656;13.064;2022-10-04T15:53:33;21.20;52.30
19090;DHT22;9677;50.656;13.064;2022-10-04T15:56:24;21.20;52.00
19090;DHT22;9677;50.656;13.064;2022-10-04T16:05:36;21.10;52.20
19090;DHT22;9677;50.656;13.064;2022-10-04T16:11:51;21.00;52.10
19090;DHT22;9677;50.656;13.064;2022-10-04T16:23:42;20.70;52.20
19090;DHT22;9677;50.656;13.064;2022-10-04T16:26:13;20.60;52.40
19090;DHT22;9677;50.656;13.064;2022-10-04T16:29:25;20.50;52.40
19090;DHT22;9677;50.656;13.064;2022-10-04T16:32:00;20.40;52.40
19090;DHT22;9677;50.656;13.064;2022-10-04T16:34:49;20.30;52.50
19090;DHT22;9677;50.656;13.064;2022-10-04T16:37:33;20.20;52.50
19090;DHT22;9677;50.656;13.064;2022-10-04T16:40:25;20.10;52.50
19090;DHT22;9677;50.656;13.064;2022-10-04T16:43:02;20.00;52.60
19090;DHT22;9677;50.656;13.064;2022-10-04T16:45:46;20.00;52.80
19090;DHT22;9677;50.656;13.064;2022-10-04T16:48:38;19.90;52.80
19090;DHT22;9677;50.656;13.064;2022-10-04T16:54:46;19.70;52.90
19090;DHT22;9677;50.656;13.064;2022-10-04T16:57:28;19.60;53.00
19090;DHT22;9677;50.656;13.064;2022-10-04T16:59:58;19.50;53.10
19090;DHT22;9677;50.656;13.064;2022-10-04T17:02:52;19.50;53.20
19090;DHT22;9677;50.656;13.064;2022-10-04T17:05:58;19.40;53.10
19090;DHT22;9677;50.656;13.064;2022-10-04T17:08:51;19.30;53.10
19090;DHT22;9677;50.656;13.064;2022-10-04T17:11:42;19.20;53.10
19090;DHT22;9677;50.656;13.064;2022-10-04T17:14:34;19.10;53.00
19090;DHT22;9677;50.656;13.064;2022-10-04T17:17:44;19.10;53.10
19090;DHT22;9677;50.656;13.064;2022-10-04T17:20:26;19.00;53.30
19090;DHT22;9677;50.656;13.064;2022-10-04T17:23:11;18.80;53.30
19090;DHT22;9677;50.656;13.064;2022-10-04T17:26:00;18.80;53.50
19090;DHT22;9677;50.656;13.064;2022-10-04T17:28:40;18.70;53.50
19090;DHT22;9677;50.656;13.064;2022-10-04T17:31:16;18.60;53.50
19090;DHT22;9677;50.656;13.064;2022-10-04T17:34:00;18.50;53.50
19090;DHT22;9677;50.656;13.064;2022-10-04T17:37:10;18.50;53.60
19090;DHT22;9677;50.656;13.064;2022-10-04T17:39:49;18.40;53.70
19090;DHT22;9677;50.656;13.064;2022-10-04T17:42:31;18.30;53.70
19090;DHT22;9677;50.656;13.064;2022-10-04T17:45:24;18.30;53.80
19090;DHT22;9677;50.656;13.064;2022-10-04T17:48:07;18.20;53.80
19090;DHT22;9677;50.656;13.064;2022-10-04T17:51:00;18.10;53.80
19090;DHT22;9677;50.656;13.064;2022-10-04T17:53:56;18.00;53.80
19090;DHT22;9677;50.656;13.064;2022-10-04T17:56:49;17.90;53.90
19090;DHT22;9677;50.656;13.064;2022-10-04T17:59:25;17.90;54.00
19090;DHT22;9677;50.656;13.064;2022-10-04T18:02:01;17.80;54.10
19090;DHT22;9677;50.656;13.064;2022-10-04T18:04:37;17.70;54.20
19090;DHT22;9677;50.656;13.064;2022-10-04T18:07:17;17.70;54.20
19090;DHT22;9677;50.656;13.064;2022-10-04T18:09:51;17.60;54.20
19090;DHT22;9677;50.656;13.064;2022-10-04T18:12:26;17.50;54.20
19090;DHT22;9677;50.656;13.064;2022-10-04T18:15:01;17.50;54.30
19090;DHT22;9677;50.656;13.064;2022-10-04T18:17:37;17.40;54.30
19090;DHT22;9677;50.656;13.064;2022-10-04T18:20:21;17.40;54.30
19090;DHT22;9677;50.656;13.064;2022-10-04T18:22:59;17.30;54.40
19090;DHT22;9677;50.656;13.064;2022-10-04T18:25:31;17.20;54.40
19090;DHT22;9677;50.656;13.064;2022-10-04T18:28:01;17.20;54.50
19090;DHT22;9677;50.656;13.064;2022-10-04T18:30:51;17.10;54.50
19090;DHT22;9677;50.656;13.064;2022-10-04T18:33:30;17.00;54.60
19090;DHT22;9677;50.656;13.064;2022-10-04T18:36:16;17.00;54.60
19090;DHT22;9677;50.656;13.064;2022-10-04T18:39:00;16.90;54.70
19090;DHT22;9677;50.656;13.064;2022-10-04T18:41:34;16.90;54.80
19090;DHT22;9677;50.656;13.064;2022-10-04T18:44:42;16.80;54.80
19090;DHT22;9677;50.656;13.064;2022-10-04T18:47:17;16.70;54.90
19090;DHT22;9677;50.656;13.064;2022-10-04T18:49:53;16.70;54.90
19090;DHT22;9677;50.656;13.064;2022-10-04T18:52:29;16.70;54.90
19090;DHT22;9677;50.656;13.064;2022-10-04T18:55:17;16.60;55.00
19090;DHT22;9677;50.656;13.064;2022-10-04T18:58:01;16.50;55.60
19090;DHT22;9677;50.656;13.064;2022-10-04T19:00:56;16.50;55.00
19090;DHT22;9677;50.656;13.064;2022-10-04T19:03:49;16.50;55.00
19090;DHT22;9677;50.656;13.064;2022-10-04T19:06:24;16.40;54.90
19090;DHT22;9677;50.656;13.064;2022-10-04T19:08:59;16.30;54.90
19090;DHT22;9677;50.656;13.064;2022-10-04T19:11:36;16.30;55.00
19090;DHT22;9677;50.656;13.064;2022-10-04T19:14:20;16.20;55.00
19090;DHT22;9677;50.656;13.064;2022-10-04T19:16:57;16.20;55.00
19090;DHT22;9677;50.656;13.064;2022-10-04T19:19:38;16.10;55.10